Flight Track Log - Related Links

Times and Time Zones

All times are in EDT time to prevent confusion due to time zone crossing. See the N618JB flight status page for this flight to view local times or setup timezone preferences in your user account.

Time Position Orientation Groundspeed Altitude Reporting Facility
EDT Latitude Longitude Course Direction KTS MPH feet Rate Location/Type
Sun 07:17:56 AM 26.7242 -79.9569 55° Northeast 243 280 5,100  Level Miami Center
Sun 07:18:00 AM 26.8520 -79.7935 55° Northeast  Level FlightAware Approximate
Sun 07:18:56 AM 26.7861 -79.8936 42° Northeast 266 306 8,600  Level Miami Center
Sun 07:19:00 AM 26.9215 -79.6922 55° Northeast  Level FlightAware Approximate
Sun 07:19:56 AM 26.8461 -79.8253 45° Northeast 296 341 10,600  Level Miami Center
Sun 07:20:00 AM 26.9872 -79.5871 55° Northeast  Level FlightAware Approximate
Sun 07:20:56 AM 26.9019 -79.7475 51° Northeast 338 389 12,000  Level Miami Center
Sun 07:21:00 AM 27.0444 -79.4983 56° Northeast  Level FlightAware Approximate
Sun 07:21:56 AM 26.9986 -79.7150 17° North 353 406 14,200  Level Miami Center
Sun 07:22:00 AM 27.0994 -79.4076 55° Northeast  Level FlightAware Approximate
Sun 07:22:56 AM 27.1183 -79.6875 12° North 371 427 16,300  Level Miami Center
Sun 07:23:00 AM 27.1555 -79.3178 55° Northeast  Level FlightAware Approximate
Sun 07:23:56 AM 27.2253 -79.6619 12° North 393 452 18,200  Level Miami Center
Sun 07:24:56 AM 27.3383 -79.6367 11° North 399 459 20,300 1,850 Climbing Miami Center
Sun 07:25:56 AM 27.4433 -79.6111 12° North 413 475 21,900 1,700 Climbing Miami Center
Sun 07:26:56 AM 27.5733 -79.5814 11° North 425 489 23,700 1,600 Climbing Miami Center
Sun 07:27:56 AM 27.6928 -79.5539 12° North 431 496 25,100 1,300 Climbing Miami Center
Sun 07:28:56 AM 27.8144 -79.5239 12° North 437 503 26,300 1,150 Climbing Miami Center
Sun 07:29:56 AM 27.9256 -79.5006 11° North 443 510 27,400 950 Climbing Miami Center
Sun 07:30:56 AM 28.0514 -79.4683 13° North 449 517 28,200 800 Climbing Miami Center
Sun 07:31:56 AM 28.1836 -79.4383 11° North 462 532 29,000 1,100 Climbing Miami Center
Sun 07:32:56 AM 28.3178 -79.4061 12° North 476 548 30,400 1,250 Climbing Miami Center
Sun 07:33:56 AM 28.4497 -79.3758 11° North 476 548 31,500 1,100 Climbing Miami Center
Sun 07:34:56 AM 28.5797 -79.3458 11° North 476 548 32,600 1,200 Climbing Miami Center
Sun 07:35:56 AM 28.7053 -79.3131 13° North 469 540 33,900 1,200 Climbing Miami Center
Sun 07:36:56 AM 28.8353 -79.2828 12° North 469 540 35,000 550 Climbing Miami Center
Sun 07:37:56 AM 28.9611 -79.2522 12° North 464 534 35,000  Level Miami Center
Sun 07:38:56 AM 29.0867 -79.2217 12° North 464 534 35,000  Level Miami Center
Sun 07:39:56 AM 29.2186 -79.1889 12° North 469 540 35,000  Level Miami Center
Sun 07:40:56 AM 29.3464 -79.1583 12° North 469 540 35,000  Level Miami Center
Sun 07:41:56 AM 29.4803 -79.1350 North 469 540 35,000  Level Miami Center
Sun 07:42:56 AM 29.6019 -79.0969 15° North 468 539 35,000  Level Miami Center
Sun 07:43:56 AM 29.7336 -79.0708 10° North 463 533 35,000  Level Miami Center
Sun 07:45:39 AM 29.9611 -79.0089 13° North 479 551 35,000  Level Jacksonville Center
Sun 07:46:39 AM 30.0831 -78.9728 14° North 465 535 35,000  Level Jacksonville Center
Sun 07:47:39 AM 30.2117 -78.9411 12° North 458 527 35,000  Level Jacksonville Center
Sun 07:48:39 AM 30.3381 -78.9144 10° North 458 527 35,000  Level Jacksonville Center
Sun 07:49:39 AM 30.4644 -78.8825 12° North 466 536 35,000  Level Jacksonville Center
Sun 07:50:39 AM 30.5867 -78.8533 12° North 459 528 35,000  Level Jacksonville Center
Sun 07:51:39 AM 30.7150 -78.8214 12° North 459 528 35,000  Level Jacksonville Center
Sun 07:52:39 AM 30.8392 -78.7894 12° North 467 537 35,000 50 Level Jacksonville Center
Sun 07:53:39 AM 30.9697 -78.7594 11° North 467 537 35,100  Climbing Jacksonville Center
Sun 07:54:39 AM 31.0942 -78.7297 12° North 461 531 35,000 -50 Descending Jacksonville Center
Sun 07:55:39 AM 31.2183 -78.6975 13° North 461 531 35,000  Level Jacksonville Center
Sun 07:56:39 AM 31.3467 -78.6650 12° North 461 531 35,000  Level Jacksonville Center
Sun 07:57:39 AM 31.4728 -78.6300 13° North 467 537 35,000  Level Jacksonville Center
Sun 07:58:39 AM 31.5969 -78.6000 12° North 462 532 35,000  Level Jacksonville Center
Sun 07:59:39 AM 31.7211 -78.5675 13° North 464 534 35,000  Level Jacksonville Center
Sun 08:00:39 AM 31.8472 -78.5344 13° North 466 536 35,000  Level Jacksonville Center
Sun 08:01:39 AM 31.9756 -78.5017 12° North 466 536 35,000  Level Jacksonville Center
Sun 08:02:39 AM 32.0956 -78.4714 12° North 461 531 35,000  Level Jacksonville Center
Sun 08:03:39 AM 32.2239 -78.4381 12° North 461 531 35,000  Level Jacksonville Center
Sun 08:04:39 AM 32.3458 -78.4075 12° North 461 531 35,000  Level Jacksonville Center
Sun 08:05:39 AM 32.4617 -78.3722 14° North 466 536 35,000  Level Jacksonville Center
Sun 08:06:39 AM 32.5900 -78.3414 11° North 466 536 35,000  Level Jacksonville Center
Sun 08:07:39 AM 32.7139 -78.3103 12° North 466 536 35,000  Level Jacksonville Center
Sun 08:08:39 AM 32.8378 -78.2744 14° North 466 536 35,000  Level Jacksonville Center
Sun 08:10:47 AM 33.1044 -78.2042 12° North 451 519 35,000  Level Washington Center
Sun 08:11:47 AM 33.2386 -78.1708 12° North 451 519 35,000  Level Washington Center
Sun 08:12:47 AM 33.3625 -78.1400 12° North 451 519 35,000  Level Washington Center
Sun 08:13:47 AM 33.4861 -78.1089 12° North 456 525 35,000  Level Washington Center
Sun 08:14:47 AM 33.6100 -78.0753 13° North 450 518 35,000  Level Washington Center
Sun 08:15:47 AM 33.7336 -78.0414 13° North 450 518 35,000  Level Washington Center
Sun 08:16:47 AM 33.8553 -78.0100 12° North 450 518 35,000  Level Washington Center
Sun 08:17:47 AM 33.9811 -77.9736 13° North 450 518 35,000  Level Washington Center
Sun 08:18:47 AM 34.1050 -77.9419 12° North 450 518 35,000  Level Washington Center
Sun 08:19:47 AM 34.2289 -77.9053 14° North 450 518 35,000  Level Washington Center
Sun 08:20:47 AM 34.3544 -77.8786 10° North 450 518 35,000  Level Washington Center
Sun 08:21:47 AM 34.4756 -77.8744 North 444 511 35,000  Level Washington Center
Sun 08:22:47 AM 34.6008 -77.8731 North 444 511 35,000  Level Washington Center
Sun 08:23:47 AM 34.7197 -77.8711 North 439 505 35,000  Level Washington Center
Sun 08:24:47 AM 34.8367 -77.8694 North 433 498 35,000  Level Washington Center
Sun 08:25:47 AM 34.9578 -77.8653 North 433 498 35,000  Level Washington Center
Sun 08:26:47 AM 35.0767 -77.8636 North 423 487 35,000 50 Level Washington Center
Sun 08:27:47 AM 35.1997 -77.8619 North 423 487 35,100  Climbing Washington Center
Sun 08:28:47 AM 35.3167 -77.8600 North 423 487 35,000 -50 Descending Washington Center
Sun 08:29:47 AM 35.4336 -77.8583 North 423 487 35,000  Level Washington Center
Sun 08:30:47 AM 35.5525 -77.8567 North 423 487 35,000 50 Level Washington Center
Sun 08:31:47 AM 35.6736 -77.8550 North 423 487 35,100 50 Climbing Washington Center
Sun 08:32:47 AM 35.7925 -77.8531 North 423 487 35,100 -50 Level Washington Center
Sun 08:33:47 AM 35.9011 -77.8536 360° North 423 487 35,000 -50 Descending Washington Center
Sun 08:34:47 AM 36.0200 -77.8519 North 423 487 35,000  Level Washington Center
Sun 08:35:47 AM 36.1389 -77.8503 North 423 487 35,000  Level Washington Center
Sun 08:36:47 AM 36.2558 -77.8483 North 423 487 35,000  Level Washington Center
Sun 08:37:47 AM 36.3769 -77.8492 360° North 423 487 35,000  Level Washington Center
Sun 08:38:47 AM 36.4917 -77.8450 North 417 480 35,000  Level Washington Center
Sun 08:39:47 AM 36.6106 -77.8431 North 422 486 35,000  Level Washington Center
Sun 08:40:47 AM 36.7317 -77.8414 North 422 486 35,000 500 Level Washington Center
Sun 08:41:47 AM 36.8486 -77.8397 North 422 486 36,000 500 Climbing Washington Center
Sun 08:42:47 AM 36.9675 -77.8378 North 422 486 36,000  Level Washington Center
Sun 08:43:47 AM 37.0864 -77.8361 North 422 486 36,000  Level Washington Center
Sun 08:44:47 AM 37.2075 -77.8344 North 422 486 36,000  Level Washington Center
Sun 08:45:47 AM 37.3264 -77.8328 North 422 486 36,000  Level Washington Center
Sun 08:46:47 AM 37.4456 -77.8206 North 422 486 36,000  Level Washington Center
Sun 08:47:47 AM 37.5631 -77.7742 17° North 427 491 36,000  Level Washington Center
Sun 08:48:47 AM 37.6750 -77.6986 28° Northeast 437 503 36,000  Level Washington Center
Sun 08:49:47 AM 37.7811 -77.6017 36° Northeast 451 519 36,000  Level Washington Center
Sun 08:50:47 AM 37.8847 -77.5044 37° Northeast 456 525 36,000  Level Washington Center
Sun 08:51:47 AM 37.9883 -77.4097 36° Northeast 456 525 36,000 -200 Level Washington Center
Sun 08:52:47 AM 38.1006 -77.3042 36° Northeast 456 525 35,600 -950 Descending Washington Center
Sun 08:53:47 AM 38.2061 -77.2061 36° Northeast 456 525 34,100 -1,300 Descending Washington Center
Sun 08:54:47 AM 38.3117 -77.1133 35° Northeast 456 525 33,000 -550 Descending Washington Center
Sun 08:55:47 AM 38.4214 -77.0122 36° Northeast 467 537 33,000  Level Washington Center
Sun 08:56:47 AM 38.5267 -76.9133 36° Northeast 467 537 33,000  Level Washington Center
Sun 08:57:47 AM 38.6342 -76.8117 36° Northeast 467 537 33,000  Level Washington Center
Sun 08:58:47 AM 38.7372 -76.7122 37° Northeast 472 543 33,000 -400 Level Washington Center
Sun 08:59:47 AM 38.8361 -76.5964 42° Northeast 472 543 32,200 -900 Descending Washington Center
Sun 09:00:47 AM 38.9372 -76.4831 41° Northeast 472 543 31,200 -1,000 Descending Washington Center
Sun 09:01:47 AM 39.0358 -76.3692 42° Northeast 472 543 30,200 -950 Descending Washington Center
Sun 09:02:47 AM 39.1367 -76.2525 42° Northeast 472 543 29,300 -1,100 Descending Washington Center
Sun 09:03:47 AM 39.2267 -76.1436 43° Northeast 477 549 28,000 -1,150 Descending Washington Center
Sun 09:04:47 AM 39.3253 -76.0317 41° Northeast 482 555 27,000 -1,750 Descending Washington Center
Sun 09:05:47 AM 39.4236 -75.9139 43° Northeast 477 549 24,500 -2,100 Descending Washington Center
Sun 09:06:47 AM 39.5175 -75.8014 43° Northeast 472 543 22,800 -1,600 Descending Washington Center
Sun 09:07:47 AM 39.6072 -75.6939 43° Northeast 451 519 21,300 -1,550 Descending Washington Center
Sun 09:08:47 AM 39.6989 -75.5861 42° Northeast 444 511 19,700 -1,700 Descending Washington Center
Sun 09:09:47 AM 39.7844 -75.4808 43° Northeast 438 504 17,900 -1,750 Descending Washington Center
Sun 09:10:47 AM 39.8675 -75.3806 43° Northeast 417 480 16,200 -1,700 Descending Washington Center
Sun 09:11:47 AM 39.9528 -75.2803 42° Northeast 412 474 14,500 -1,655 Descending Washington Center
Sun 09:13:00 AM 40.0478 -75.1383 42° Northeast  Level FlightAware Approximate
Sun 09:13:41 AM 40.1000 -75.0833 42° Northeast 389 448 11,400  Level New York TRACON
Sun 09:14:40 AM 40.1833 -75.0000 37° Northeast 348 400 10,200 -1,563 Descending New York TRACON
Sun 09:15:40 AM 40.2500 -74.9167 44° Northeast 309 356 8,300 -1,150 Descending New York TRACON
Sun 09:16:40 AM 40.3000 -74.8333 52° Northeast 302 348 7,900 -942 Descending New York TRACON
Sun 09:17:41 AM 40.3333 -74.7333 66° East 304 350 6,400 -950 Descending New York TRACON
Sun 09:18:40 AM 40.3667 -74.6500 62° Northeast 299 344 6,000 -211 Descending New York TRACON
Sun 09:19:35 AM 40.4500 -74.6167 17° North 291 335 6,000  Level New York TRACON
Sun 09:20:29 AM 40.5167 -74.6167 360° North 294 338 6,000  Level New York TRACON
Sun 09:21:29 AM 40.5667 -74.6833 315° West 271 312 6,000  Level New York TRACON
Sun 09:22:29 AM 40.6500 -74.6667 North 298 343 6,000 -350 Level New York TRACON
Sun 09:23:29 AM 40.7167 -74.6000 37° Northeast 298 343 5,300 -500 Descending New York TRACON
Sun 09:24:29 AM 40.7833 -74.5333 37° Northeast 296 341 5,000 -158 Descending New York TRACON
Sun 09:25:23 AM 40.8333 -74.4833 37° Northeast 292 336 5,000  Level New York TRACON
Sun 09:26:29 AM 40.8833 -74.3833 56° Northeast 293 337 5,000  Level New York TRACON
Sun 09:27:29 AM 40.9333 -74.3000 52° Northeast 291 335 5,000 -381 Level New York TRACON
Sun 09:28:35 AM 40.9500 -74.1833 79° East 286 329 4,200 -476 Descending New York TRACON
Sun 09:29:35 AM 40.9500 -74.0833 90° East 272 313 4,000 -550 Descending New York TRACON
Sun 09:30:35 AM 40.9000 -74.0500 153° Southeast 205 236 3,100 -500 Descending New York TRACON
Sun 09:31:35 AM 40.8500 -74.0667 194° South 200 230 3,000 -300 Descending New York TRACON
Sun 09:32:35 AM 40.8000 -74.1000 207° Southwest 170 196 2,500 -700 Descending New York TRACON
Sun 09:33:35 AM 40.7667 -74.1167 201° Southwest 159 183 1,600 -857 Descending New York TRACON
Sun 09:34:41 AM 40.7333 -74.1500 217° Southwest 128 147 700 -818 Descending New York TRACON
Sun 09:36:00 AM 40.6925 -74.1687 196° South  Level Estimated
Sun 09:43:00 AM 40.6925 -74.1687 196° South  Level Estimated

Login

Don't have an account? Register now (free) for customized features, flight alerts, and more!